createdAt,value
2018-07-02T00:01:30.041Z,101351.86
2018-07-02T00:04:54.517Z,101347.25
2018-07-02T00:08:19.171Z,101345.59
2018-07-02T00:11:43.630Z,101342.63
2018-07-02T00:15:08.357Z,101339.75
2018-07-02T00:18:32.786Z,101335.25
2018-07-02T00:21:57.298Z,101336.50
2018-07-02T00:25:21.748Z,101333.66
2018-07-02T00:28:46.223Z,101335.27
2018-07-02T00:32:10.695Z,101335.94
2018-07-02T00:35:35.302Z,101333.86
2018-07-02T00:38:59.751Z,101331.00
2018-07-02T00:42:24.343Z,101333.21
2018-07-02T00:45:48.843Z,101336.31
2018-07-02T00:49:13.312Z,101334.95
2018-07-02T00:52:37.959Z,101336.19
2018-07-02T00:56:02.467Z,101330.37
2018-07-02T00:59:26.995Z,101325.41
2018-07-02T01:02:51.532Z,101333.45
2018-07-02T01:06:16.233Z,101328.64
2018-07-02T01:09:40.848Z,101329.36
2018-07-02T01:13:05.512Z,101333.30
2018-07-02T01:16:30.060Z,101333.74
2018-07-02T01:19:54.637Z,101331.52
2018-07-02T01:23:19.191Z,101326.14
2018-07-02T01:26:43.655Z,101327.95
2018-07-02T01:30:08.270Z,101324.66
2018-07-02T01:33:33.050Z,101328.19
2018-07-02T01:36:57.511Z,101330.62
2018-07-02T01:40:22.047Z,101325.17
2018-07-02T01:43:46.591Z,101329.39
2018-07-02T01:47:11.147Z,101335.23
2018-07-02T01:50:35.759Z,101342.17
2018-07-02T01:54:00.344Z,101346.48
2018-07-02T01:57:24.981Z,101344.13
2018-07-02T02:00:49.555Z,101345.56
2018-07-02T02:04:14.062Z,101350.38
2018-07-02T02:07:38.813Z,101361.77
2018-07-02T02:11:03.350Z,101360.27
2018-07-02T02:14:27.928Z,101356.70
2018-07-02T02:17:52.424Z,101353.98
2018-07-02T02:21:17.026Z,101360.34
2018-07-02T02:24:41.605Z,101358.36
2018-07-02T02:28:06.249Z,101357.16
2018-07-02T02:31:30.828Z,101357.48
2018-07-02T02:34:55.337Z,101358.63
2018-07-02T02:38:19.925Z,101359.39
2018-07-02T02:41:44.441Z,101354.08
2018-07-02T02:45:09.128Z,101349.36
2018-07-02T02:48:33.669Z,101348.27
2018-07-02T02:51:58.277Z,101348.17
2018-07-02T02:55:22.847Z,101346.86
2018-07-02T02:58:47.449Z,101353.28
2018-07-02T03:02:12.078Z,101358.84
2018-07-02T03:05:37.166Z,101353.55
2018-07-02T03:09:01.892Z,101352.80
2018-07-02T03:12:26.489Z,101353.17
2018-07-02T03:15:51.002Z,101349.33
2018-07-02T03:19:15.537Z,101353.91
2018-07-02T03:22:39.997Z,101347.11
2018-07-02T03:26:04.565Z,101351.81
2018-07-02T03:29:29.140Z,101350.32
2018-07-02T03:32:53.711Z,101360.45
2018-07-02T03:36:18.295Z,101352.18
2018-07-02T03:39:42.784Z,101355.38
2018-07-02T03:43:07.353Z,101352.80
2018-07-02T03:46:31.883Z,101367.61
2018-07-02T03:49:56.444Z,101374.30
2018-07-02T03:53:21.029Z,101380.87
2018-07-02T03:56:45.618Z,101383.59
2018-07-02T04:00:10.324Z,101384.32
2018-07-02T04:03:34.856Z,101384.07
2018-07-02T04:06:59.490Z,101391.11
2018-07-02T04:10:24.005Z,101381.09
2018-07-02T04:13:48.615Z,101387.38
2018-07-02T04:17:13.235Z,101392.06
2018-07-02T04:20:37.810Z,101394.88
2018-07-02T04:24:02.402Z,101385.20
2018-07-02T04:27:26.915Z,101383.56
2018-07-02T04:30:51.488Z,101378.16
2018-07-02T04:34:16.123Z,101379.05
2018-07-02T04:37:40.732Z,101395.00
2018-07-02T04:41:05.359Z,101397.80
2018-07-02T04:44:29.961Z,101399.58
2018-07-02T04:47:54.559Z,101399.65
2018-07-02T04:51:19.220Z,101397.88
2018-07-02T04:54:43.633Z,101401.28
2018-07-02T04:58:08.244Z,101395.30
2018-07-02T05:01:32.832Z,101391.53
2018-07-02T05:04:57.659Z,101393.88
2018-07-02T05:08:22.652Z,101392.69
2018-07-02T05:11:47.118Z,101400.47
2018-07-02T05:15:11.543Z,101385.68
2018-07-02T05:18:36.042Z,101389.13
2018-07-02T05:22:00.576Z,101376.34
2018-07-02T05:25:25.143Z,101379.75
2018-07-02T05:28:49.522Z,101377.89
2018-07-02T05:32:14.069Z,101377.67
2018-07-02T05:35:38.522Z,101378.95
2018-07-02T05:39:03.028Z,101381.53
2018-07-02T05:42:27.515Z,101378.99
2018-07-02T05:45:52.370Z,101380.84
2018-07-02T05:49:16.830Z,101375.28
2018-07-02T05:52:41.290Z,101366.08
2018-07-02T05:56:05.867Z,101373.44
2018-07-02T05:59:30.341Z,101372.94
2018-07-02T06:02:54.890Z,101379.56
2018-07-02T06:06:19.852Z,101369.78
2018-07-02T06:09:44.327Z,101372.56
2018-07-02T06:13:08.943Z,101370.77
2018-07-02T06:16:33.465Z,101375.03
2018-07-02T06:19:57.946Z,101382.30
2018-07-02T06:23:22.544Z,101375.87
2018-07-02T06:26:47.051Z,101381.54
2018-07-02T06:30:11.594Z,101394.97
2018-07-02T06:33:36.112Z,101402.13
2018-07-02T06:37:00.638Z,101394.04
2018-07-02T06:40:25.226Z,101389.50
2018-07-02T06:43:49.738Z,101391.27
2018-07-02T06:47:14.248Z,101391.98
2018-07-02T06:50:38.824Z,101386.55
2018-07-02T06:54:03.354Z,101385.21
2018-07-02T06:57:27.924Z,101391.14
2018-07-02T07:00:52.396Z,101391.48
2018-07-02T07:04:17.215Z,101391.25
2018-07-02T07:07:41.766Z,101391.95
2018-07-02T07:11:06.361Z,101395.45
2018-07-02T07:14:30.916Z,101403.02
2018-07-02T07:17:55.480Z,101405.67
2018-07-02T07:21:20.106Z,101405.36
2018-07-02T07:24:44.646Z,101410.30
2018-07-02T07:28:09.105Z,101409.70
2018-07-02T07:31:33.674Z,101414.05
2018-07-02T07:34:58.211Z,101409.48
2018-07-02T07:38:22.738Z,101406.63
2018-07-02T07:41:47.260Z,101401.97
2018-07-02T07:45:11.815Z,101403.00
2018-07-02T07:48:36.298Z,101404.27
2018-07-02T07:52:00.771Z,101409.84
2018-07-02T07:55:25.305Z,101392.67
2018-07-02T07:58:49.848Z,101398.78
2018-07-02T08:02:14.359Z,101401.22
2018-07-02T08:05:38.787Z,101397.84
2018-07-02T08:09:03.742Z,101402.33
2018-07-02T08:12:28.321Z,101399.77
2018-07-02T08:15:52.770Z,101400.28
2018-07-02T08:19:17.257Z,101392.92
2018-07-02T08:22:41.815Z,101393.28
2018-07-02T08:26:06.253Z,101391.06
2018-07-02T08:29:30.667Z,101382.09
2018-07-02T08:32:55.248Z,101383.92
2018-07-02T08:36:19.643Z,101382.71
2018-07-02T08:39:44.407Z,101376.83
2018-07-02T08:43:08.615Z,101379.00
2018-07-02T08:46:33.159Z,101378.27
2018-07-02T08:49:57.651Z,101383.73
2018-07-02T08:53:22.098Z,101376.62
2018-07-02T08:56:46.540Z,101387.27
2018-07-02T09:00:11.019Z,101386.94
2018-07-02T09:03:35.547Z,101380.09
2018-07-02T09:07:00.205Z,101382.95
2018-07-02T09:10:24.667Z,101390.06
2018-07-02T09:13:49.161Z,101386.04
2018-07-02T09:17:13.587Z,101384.05
2018-07-02T09:20:38.015Z,101391.42
2018-07-02T09:24:02.622Z,101385.27
2018-07-02T09:27:27.188Z,101389.65
2018-07-02T09:30:51.753Z,101394.41
2018-07-02T09:34:16.171Z,101396.58
2018-07-02T09:37:40.599Z,101383.73
2018-07-02T09:41:05.058Z,101386.22
2018-07-02T09:44:29.454Z,101380.53
2018-07-02T09:47:54.033Z,101379.98
2018-07-02T09:51:18.487Z,101384.39
2018-07-02T09:54:42.893Z,101389.55
2018-07-02T09:58:07.436Z,101390.75
2018-07-02T10:01:31.927Z,101390.77
2018-07-02T10:04:56.345Z,101388.91
2018-07-02T10:08:20.777Z,101384.58
2018-07-02T10:11:45.194Z,101378.30
2018-07-02T10:15:09.634Z,101388.81
2018-07-02T10:18:34.106Z,101381.96
2018-07-02T10:21:58.568Z,101386.65
2018-07-02T10:25:23.021Z,101384.56
2018-07-02T10:28:47.415Z,101388.69
2018-07-02T10:32:11.846Z,101385.20
2018-07-02T10:35:36.259Z,101384.67
2018-07-02T10:39:00.708Z,101389.38
2018-07-02T10:42:25.125Z,101385.69
2018-07-02T10:45:49.579Z,101378.14
2018-07-02T10:49:14.021Z,101369.41
2018-07-02T10:52:38.470Z,101363.36
2018-07-02T10:56:03.010Z,101370.98
2018-07-02T10:59:27.541Z,101377.42
2018-07-02T11:02:52.376Z,101375.80
2018-07-02T11:06:16.928Z,101371.55
2018-07-02T11:09:41.452Z,101363.39
2018-07-02T11:13:12.083Z,101369.44
2018-07-02T11:16:36.708Z,101373.54
2018-07-02T11:20:01.274Z,101376.56
2018-07-02T11:23:25.774Z,101355.55
2018-07-02T11:26:50.237Z,101355.27
2018-07-02T11:30:14.731Z,101349.02
2018-07-02T11:33:39.196Z,101353.48
2018-07-02T11:37:03.651Z,101347.16
2018-07-02T11:40:28.047Z,101338.03
2018-07-02T11:43:52.509Z,101340.11
2018-07-02T11:47:17.064Z,101347.88
2018-07-02T11:50:41.632Z,101342.22
2018-07-02T11:54:06.308Z,101341.31
2018-07-02T11:57:30.937Z,101336.16
2018-07-02T12:00:55.464Z,101344.14
2018-07-02T12:04:20.012Z,101337.22
2018-07-02T12:07:44.600Z,101343.59
2018-07-02T12:11:09.114Z,101339.39
2018-07-02T12:14:33.639Z,101338.91
2018-07-02T12:17:58.076Z,101333.53
2018-07-02T12:21:22.598Z,101339.59
2018-07-02T12:24:47.100Z,101340.08
2018-07-02T12:28:11.553Z,101334.37
2018-07-02T12:31:35.977Z,101329.75
2018-07-02T12:35:00.443Z,101336.31
2018-07-02T12:38:24.898Z,101336.77
2018-07-02T12:41:49.365Z,101329.84
2018-07-02T12:45:13.941Z,101316.54
2018-07-02T12:48:38.451Z,101324.75
2018-07-02T12:52:02.867Z,101317.70
2018-07-02T12:55:27.368Z,101311.91
2018-07-02T12:58:51.795Z,101318.85
2018-07-02T13:02:16.252Z,101314.77
2018-07-02T13:05:40.670Z,101323.39
2018-07-02T13:09:08.581Z,101323.36
2018-07-02T13:12:33.149Z,101314.59
2018-07-02T13:15:57.671Z,101315.51
2018-07-02T13:19:22.674Z,101306.02
2018-07-02T13:26:41.601Z,101317.77
2018-07-02T13:30:06.845Z,101302.88
2018-07-02T13:33:31.503Z,101299.03
2018-07-02T13:36:56.074Z,101295.93
2018-07-02T13:40:20.631Z,101301.72
2018-07-02T13:43:45.128Z,101307.98
2018-07-02T13:47:09.652Z,101303.14
2018-07-02T13:50:34.269Z,101310.83
2018-07-02T13:53:58.879Z,101301.22
2018-07-02T13:57:23.568Z,101295.63
2018-07-02T14:00:48.194Z,101299.77
2018-07-02T14:04:12.752Z,101292.19
2018-07-02T14:07:37.258Z,101297.27
2018-07-02T14:11:01.723Z,101295.72
2018-07-02T14:14:26.467Z,101301.37
2018-07-02T14:17:51.001Z,101291.11
2018-07-02T14:21:15.455Z,101291.27
2018-07-02T14:24:40.061Z,101288.47
2018-07-02T14:28:04.547Z,101283.94
2018-07-02T14:31:29.076Z,101281.23
2018-07-02T14:34:53.575Z,101271.50
2018-07-02T14:38:18.069Z,101279.22
2018-07-02T14:41:42.574Z,101275.16
2018-07-02T14:45:07.473Z,101268.10
2018-07-02T14:48:31.853Z,101266.86
2018-07-02T14:51:56.446Z,101261.23
2018-07-02T14:55:21.124Z,101260.86
2018-07-02T14:58:45.645Z,101254.83
2018-07-02T15:02:10.222Z,101247.11
2018-07-02T15:05:34.856Z,101242.53
2018-07-02T15:08:59.716Z,101235.12
2018-07-02T15:12:24.443Z,101244.80
2018-07-02T15:15:49.897Z,101238.78
2018-07-02T15:19:14.522Z,101241.92
2018-07-02T15:22:39.180Z,101240.64
2018-07-02T15:26:03.897Z,101242.00
2018-07-02T15:29:28.477Z,101250.65
2018-07-02T15:32:53.075Z,101255.44
2018-07-02T15:36:30.548Z,101246.38
2018-07-02T15:39:55.856Z,101246.91
2018-07-02T15:43:20.473Z,101249.47
2018-07-02T15:46:45.071Z,101256.16
2018-07-02T15:50:10.373Z,101261.91
2018-07-02T15:53:34.913Z,101262.78
2018-07-02T15:56:59.483Z,101254.83
2018-07-02T16:00:24.143Z,101247.63
2018-07-02T16:03:48.671Z,101243.27
2018-07-02T16:07:13.407Z,101239.02
2018-07-02T16:10:37.979Z,101239.59
2018-07-02T16:14:02.547Z,101242.50
2018-07-02T16:17:27.065Z,101241.66
2018-07-02T16:20:51.737Z,101243.76
2018-07-02T16:24:16.259Z,101240.61
2018-07-02T16:27:40.863Z,101234.73
2018-07-02T16:31:05.458Z,101226.27
2018-07-02T16:34:31.074Z,101230.46
2018-07-02T16:37:55.989Z,101227.42
2018-07-02T16:41:20.588Z,101223.02
2018-07-02T16:44:45.101Z,101232.13
2018-07-02T16:48:09.614Z,101220.98
2018-07-02T16:51:34.446Z,101225.69
2018-07-02T16:54:58.942Z,101221.72
2018-07-02T16:58:23.777Z,101227.16
2018-07-02T17:01:48.516Z,101228.31
2018-07-02T17:05:13.205Z,101225.78
2018-07-02T17:08:37.681Z,101221.57
2018-07-02T17:12:02.350Z,101212.20
2018-07-02T17:15:26.860Z,101209.94
2018-07-02T17:18:51.416Z,101226.97
2018-07-02T17:22:15.917Z,101230.63
2018-07-02T17:25:40.484Z,101224.13
2018-07-02T17:29:05.109Z,101225.48
2018-07-02T17:32:29.600Z,101222.39
2018-07-02T17:35:54.501Z,101218.59
2018-07-02T17:39:19.301Z,101223.42
2018-07-02T17:42:44.070Z,101223.11
2018-07-02T17:46:08.638Z,101227.34
2018-07-02T17:49:33.175Z,101227.25
2018-07-02T17:52:57.650Z,101241.06
2018-07-02T17:56:22.437Z,101240.55
2018-07-02T17:59:47.088Z,101234.45
2018-07-02T18:03:11.717Z,101240.19
2018-07-02T18:06:36.287Z,101247.64
2018-07-02T18:10:00.918Z,101245.91
2018-07-02T18:13:25.387Z,101246.07
2018-07-02T18:16:49.875Z,101247.23
2018-07-02T18:20:15.227Z,101252.50
2018-07-02T18:23:39.707Z,101245.47
2018-07-02T18:27:04.240Z,101235.17
2018-07-02T18:30:28.665Z,101237.99
2018-07-02T18:33:53.223Z,101245.83
2018-07-02T18:37:17.637Z,101241.23
2018-07-02T18:40:42.112Z,101246.05
2018-07-02T18:44:07.190Z,101252.45
2018-07-02T18:47:31.645Z,101252.87
2018-07-02T18:50:56.087Z,101246.67
2018-07-02T18:54:24.067Z,101245.90
2018-07-02T18:57:48.879Z,101257.55
2018-07-02T19:01:13.442Z,101258.70
2018-07-02T19:04:38.882Z,101255.06
2018-07-02T19:08:03.495Z,101254.31
2018-07-02T19:11:28.051Z,101265.48
2018-07-02T19:14:52.382Z,101274.22
2018-07-02T19:18:16.883Z,101272.72
2018-07-02T19:21:41.349Z,101280.73
2018-07-02T19:25:08.838Z,101284.79
2018-07-02T19:28:34.786Z,101290.09
2018-07-02T19:31:59.706Z,101298.21
2018-07-02T19:35:25.019Z,101304.91
2018-07-02T19:38:50.627Z,101311.27
2018-07-02T19:42:15.112Z,101314.64
2018-07-02T19:45:39.607Z,101317.03
2018-07-02T19:49:04.973Z,101315.33
2018-07-02T19:52:30.345Z,101324.72
2018-07-02T19:55:56.266Z,101328.72
2018-07-02T19:59:22.642Z,101329.59
2018-07-02T20:02:47.938Z,101334.06
2018-07-02T20:06:13.333Z,101345.73
2018-07-02T20:09:38.413Z,101336.67
2018-07-02T20:13:03.965Z,101339.64
2018-07-02T20:16:28.591Z,101345.95
2018-07-02T20:19:53.127Z,101351.51
2018-07-02T20:23:17.586Z,101356.88
2018-07-02T20:26:43.089Z,101361.77
2018-07-02T20:30:09.959Z,101357.80
2018-07-02T20:33:35.317Z,101362.69
2018-07-02T20:37:00.665Z,101370.52
2018-07-02T20:40:25.271Z,101375.11
2018-07-02T20:43:49.999Z,101374.94
2018-07-02T20:47:14.463Z,101377.84
2018-07-02T20:50:38.929Z,101372.29
2018-07-02T20:54:03.492Z,101386.22
2018-07-02T20:57:28.010Z,101387.95
2018-07-02T21:00:52.482Z,101385.03
2018-07-02T21:04:17.013Z,101389.17
2018-07-02T21:07:41.591Z,101393.39
2018-07-02T21:11:06.071Z,101392.94
2018-07-02T21:14:30.698Z,101394.34
2018-07-02T21:17:54.910Z,101394.86
2018-07-02T21:21:19.457Z,101392.50
2018-07-02T21:24:44.028Z,101403.02
2018-07-02T21:28:08.843Z,101402.67
2018-07-02T21:31:33.651Z,101401.30
2018-07-02T21:34:58.351Z,101402.53
2018-07-02T21:38:22.954Z,101394.95
2018-07-02T21:41:47.587Z,101401.00
2018-07-02T21:45:12.193Z,101398.11
2018-07-02T21:48:36.711Z,101397.39
2018-07-02T21:52:11.802Z,101403.24
2018-07-02T21:55:36.344Z,101410.98
2018-07-02T21:59:01.509Z,101410.64
2018-07-02T22:02:26.089Z,101411.34
2018-07-02T22:05:50.569Z,101414.78
2018-07-02T22:09:15.268Z,101410.86
2018-07-02T22:12:39.857Z,101417.20
2018-07-02T22:16:05.035Z,101413.61
2018-07-02T22:19:29.613Z,101416.00
2018-07-02T22:22:54.022Z,101412.56
2018-07-02T22:26:18.731Z,101414.98
2018-07-02T22:29:43.717Z,101415.95
2018-07-02T22:33:09.187Z,101412.16
2018-07-02T22:36:33.848Z,101420.77
2018-07-02T22:39:59.112Z,101417.28
2018-07-02T22:43:23.787Z,101417.99
2018-07-02T22:46:48.541Z,101420.91
2018-07-02T22:50:13.143Z,101425.38
2018-07-02T22:53:37.727Z,101429.14
2018-07-02T22:57:02.229Z,101422.78
2018-07-02T23:00:27.333Z,101421.04
2018-07-02T23:03:52.036Z,101419.67
2018-07-02T23:07:16.988Z,101421.88
2018-07-02T23:10:41.492Z,101424.59
2018-07-02T23:14:06.794Z,101435.00
2018-07-02T23:17:31.216Z,101436.20
2018-07-02T23:20:55.670Z,101429.41
2018-07-02T23:24:20.170Z,101428.73
2018-07-02T23:27:44.672Z,101437.27
2018-07-02T23:31:09.211Z,101427.61
2018-07-02T23:34:33.798Z,101430.70
2018-07-02T23:37:58.309Z,101432.25
2018-07-02T23:41:22.871Z,101426.64
2018-07-02T23:44:47.365Z,101433.03
2018-07-02T23:48:11.945Z,101430.91
2018-07-02T23:51:36.489Z,101430.91
2018-07-02T23:55:01.027Z,101429.03
2018-07-02T23:58:26.033Z,101430.41
